createdAt,value
2018-10-09T00:00:14.660Z,14.30
2018-10-09T00:02:43.480Z,14.40
2018-10-09T00:05:12.261Z,14.30
2018-10-09T00:07:41.031Z,14.30
2018-10-09T00:10:09.908Z,14.30
2018-10-09T00:12:38.808Z,14.40
2018-10-09T00:15:07.837Z,14.30
2018-10-09T00:17:36.672Z,14.30
2018-10-09T00:20:06.115Z,14.20
2018-10-09T00:22:34.896Z,14.20
2018-10-09T00:25:03.714Z,14.20
2018-10-09T00:27:32.528Z,14.20
2018-10-09T00:30:01.326Z,14.20
2018-10-09T00:32:30.139Z,14.20
2018-10-09T00:34:58.968Z,14.20
2018-10-09T00:37:27.761Z,14.20
2018-10-09T00:39:56.596Z,14.30
2018-10-09T00:42:25.452Z,14.40
2018-10-09T00:44:54.267Z,14.40
2018-10-09T00:47:23.096Z,14.40
2018-10-09T00:49:51.969Z,14.40
2018-10-09T00:52:20.897Z,14.40
2018-10-09T00:54:49.825Z,14.50
2018-10-09T00:57:18.800Z,14.50
2018-10-09T00:59:47.607Z,14.50
2018-10-09T01:02:16.424Z,14.50
2018-10-09T01:04:45.257Z,14.50
2018-10-09T01:07:14.046Z,14.50
2018-10-09T01:09:42.819Z,14.60
2018-10-09T01:12:11.588Z,14.60
2018-10-09T01:14:40.420Z,14.60
2018-10-09T01:17:10.004Z,14.60
2018-10-09T01:19:38.848Z,14.60
2018-10-09T01:22:08.301Z,14.60
2018-10-09T01:24:37.156Z,14.50
2018-10-09T01:27:05.847Z,14.50
2018-10-09T01:29:34.865Z,14.50
2018-10-09T01:32:03.719Z,14.50
2018-10-09T01:34:32.543Z,14.50
2018-10-09T01:37:01.361Z,14.40
2018-10-09T01:39:30.061Z,14.30
2018-10-09T01:41:58.833Z,14.30
2018-10-09T01:44:27.604Z,14.30
2018-10-09T01:46:56.401Z,14.30
2018-10-09T01:49:25.157Z,14.20
2018-10-09T01:51:54.020Z,14.10
2018-10-09T01:54:22.809Z,14.20
2018-10-09T01:56:51.509Z,14.20
2018-10-09T01:59:20.298Z,14.10
2018-10-09T02:01:49.125Z,14.10
2018-10-09T02:04:17.898Z,14.10
2018-10-09T02:06:46.775Z,14.00
2018-10-09T02:09:15.535Z,14.10
2018-10-09T02:11:44.375Z,14.10
2018-10-09T02:14:13.133Z,14.10
2018-10-09T02:16:41.893Z,14.00
2018-10-09T02:19:10.903Z,14.00
2018-10-09T02:21:39.720Z,13.90
2018-10-09T02:24:08.500Z,13.80
2018-10-09T02:26:37.302Z,13.70
2018-10-09T02:29:06.203Z,13.90
2018-10-09T02:31:34.921Z,13.90
2018-10-09T02:34:03.720Z,13.90
2018-10-09T02:36:32.539Z,13.90
2018-10-09T02:39:01.322Z,13.90
2018-10-09T02:41:30.097Z,14.00
2018-10-09T02:43:58.853Z,13.90
2018-10-09T02:46:27.633Z,14.00
2018-10-09T02:48:56.364Z,14.00
2018-10-09T02:51:25.149Z,14.10
2018-10-09T02:53:53.888Z,14.00
2018-10-09T02:56:22.656Z,14.10
2018-10-09T02:58:51.467Z,14.00
2018-10-09T03:01:20.184Z,13.90
2018-10-09T03:03:48.989Z,14.10
2018-10-09T03:06:17.759Z,14.20
2018-10-09T03:08:46.508Z,14.30
2018-10-09T03:11:15.263Z,14.30
2018-10-09T03:13:44.106Z,14.50
2018-10-09T03:16:12.800Z,14.50
2018-10-09T03:18:41.581Z,14.50
2018-10-09T03:21:10.316Z,14.60
2018-10-09T03:23:39.237Z,14.70
2018-10-09T03:26:08.234Z,14.70
2018-10-09T03:28:37.005Z,14.80
2018-10-09T03:31:05.883Z,14.70
2018-10-09T03:33:34.671Z,14.70
2018-10-09T03:36:03.592Z,14.80
2018-10-09T03:38:32.326Z,14.80
2018-10-09T03:41:01.344Z,14.90
2018-10-09T03:43:30.065Z,14.90
2018-10-09T03:45:58.830Z,15.00
2018-10-09T03:48:27.672Z,15.10
2018-10-09T03:50:56.408Z,15.00
2018-10-09T03:53:25.431Z,15.10
2018-10-09T03:55:54.180Z,15.10
2018-10-09T03:58:22.967Z,15.00
2018-10-09T04:00:51.740Z,15.10
2018-10-09T04:03:20.502Z,15.10
2018-10-09T04:05:49.221Z,15.20
2018-10-09T04:08:18.223Z,15.20
2018-10-09T04:10:46.953Z,15.30
2018-10-09T04:13:15.679Z,15.40
2018-10-09T04:15:44.532Z,15.20
2018-10-09T04:18:13.328Z,15.40
2018-10-09T04:20:42.076Z,15.40
2018-10-09T04:23:10.836Z,15.40
2018-10-09T04:25:39.608Z,15.30
2018-10-09T04:28:08.389Z,15.10
2018-10-09T04:30:37.136Z,15.20
2018-10-09T04:33:06.056Z,15.10
2018-10-09T04:35:34.754Z,15.10
2018-10-09T04:38:03.845Z,15.00
2018-10-09T04:40:32.605Z,15.10
2018-10-09T04:43:01.566Z,15.00
2018-10-09T04:45:30.641Z,15.00
2018-10-09T04:48:00.714Z,15.10
2018-10-09T04:50:29.861Z,15.20
2018-10-09T04:52:59.100Z,15.10
2018-10-09T04:55:27.909Z,15.00
2018-10-09T04:57:56.769Z,14.70
2018-10-09T05:00:25.654Z,14.80
2018-10-09T05:02:54.476Z,14.90
2018-10-09T05:05:23.393Z,14.90
2018-10-09T05:07:52.218Z,14.70
2018-10-09T05:10:21.027Z,14.80
2018-10-09T05:12:49.809Z,14.90
2018-10-09T05:15:18.665Z,14.90
2018-10-09T05:17:47.413Z,15.00
2018-10-09T05:20:16.242Z,15.00
2018-10-09T05:22:45.060Z,14.90
2018-10-09T05:25:13.874Z,15.00
2018-10-09T05:27:42.654Z,15.00
2018-10-09T05:30:11.431Z,14.90
2018-10-09T05:32:40.267Z,15.00
2018-10-09T05:35:09.069Z,14.80
2018-10-09T05:37:37.960Z,15.00
2018-10-09T05:40:06.805Z,14.90
2018-10-09T05:42:35.698Z,14.90
2018-10-09T05:45:04.656Z,15.10
2018-10-09T05:47:33.444Z,15.10
2018-10-09T05:50:02.228Z,15.30
2018-10-09T05:52:31.016Z,15.40
2018-10-09T05:54:59.825Z,15.40
2018-10-09T05:57:28.539Z,15.50
2018-10-09T05:59:57.345Z,15.40
2018-10-09T06:02:26.181Z,15.50
2018-10-09T06:04:54.961Z,15.30
2018-10-09T06:07:24.277Z,15.40
2018-10-09T06:09:53.056Z,15.50
2018-10-09T06:12:21.793Z,15.50
2018-10-09T06:14:50.562Z,15.60
2018-10-09T06:17:19.305Z,15.70
2018-10-09T06:19:48.057Z,15.80
2018-10-09T06:22:16.897Z,15.80
2018-10-09T06:24:45.639Z,15.80
2018-10-09T06:27:14.377Z,15.80
2018-10-09T06:29:43.209Z,15.90
2018-10-09T06:32:11.980Z,15.90
2018-10-09T06:34:40.775Z,16.00
2018-10-09T06:37:09.589Z,16.00
2018-10-09T06:39:38.280Z,16.00
2018-10-09T06:42:07.122Z,16.20
2018-10-09T06:44:35.888Z,16.20
2018-10-09T06:47:04.608Z,16.20
2018-10-09T06:49:33.334Z,16.20
2018-10-09T06:52:02.548Z,16.20
2018-10-09T06:54:31.485Z,16.30
2018-10-09T06:57:00.283Z,16.30
2018-10-09T06:59:29.052Z,16.30
2018-10-09T07:01:57.802Z,16.40
2018-10-09T07:04:26.551Z,16.60
2018-10-09T07:06:55.391Z,16.70
2018-10-09T07:09:24.195Z,16.70
2018-10-09T07:11:52.965Z,16.70
2018-10-09T07:14:21.973Z,16.80
2018-10-09T07:16:51.042Z,16.80
2018-10-09T07:19:19.809Z,16.80
2018-10-09T07:21:48.597Z,16.70
2018-10-09T07:24:17.725Z,16.60
2018-10-09T07:26:46.484Z,16.50
2018-10-09T07:29:15.267Z,16.30
2018-10-09T07:31:44.029Z,16.20
2018-10-09T07:34:12.748Z,16.20
2018-10-09T07:36:41.764Z,16.20
2018-10-09T07:39:12.470Z,16.10
2018-10-09T07:41:41.449Z,16.10
2018-10-09T07:44:10.214Z,16.10
2018-10-09T07:46:38.966Z,16.20
2018-10-09T07:49:07.737Z,16.30
2018-10-09T07:51:36.455Z,16.30
2018-10-09T07:54:05.246Z,16.30
2018-10-09T07:56:34.070Z,16.30
2018-10-09T07:59:03.285Z,16.40
2018-10-09T08:01:32.020Z,16.30
2018-10-09T08:04:00.829Z,16.40
2018-10-09T08:06:29.575Z,16.30
2018-10-09T08:08:58.595Z,16.40
2018-10-09T08:11:27.330Z,16.50
2018-10-09T08:13:56.075Z,16.60
2018-10-09T08:16:25.274Z,16.70
2018-10-09T08:18:53.924Z,16.80
2018-10-09T08:21:22.688Z,16.90
2018-10-09T08:23:51.572Z,16.90
2018-10-09T08:26:20.429Z,16.90
2018-10-09T08:28:49.178Z,16.60
2018-10-09T08:31:17.981Z,16.80
2018-10-09T08:33:46.692Z,16.70
2018-10-09T08:36:15.429Z,16.60
2018-10-09T08:38:45.194Z,16.80
2018-10-09T08:41:13.987Z,16.50
2018-10-09T08:43:42.716Z,16.40
2018-10-09T08:46:11.520Z,16.60
2018-10-09T08:48:41.202Z,16.70
2018-10-09T08:51:10.014Z,16.60
2018-10-09T08:53:38.847Z,16.70
2018-10-09T08:56:07.777Z,16.80
2018-10-09T08:58:37.806Z,16.70
2018-10-09T09:01:06.628Z,16.80
2018-10-09T09:03:35.417Z,16.80
2018-10-09T09:06:04.178Z,16.80
2018-10-09T09:08:32.975Z,16.80
2018-10-09T09:11:01.732Z,17.00
2018-10-09T09:13:30.578Z,17.20
2018-10-09T09:15:59.323Z,17.20
2018-10-09T09:18:28.198Z,17.10
2018-10-09T09:20:56.965Z,17.10
2018-10-09T09:23:25.764Z,17.20
2018-10-09T09:25:54.557Z,17.30
2018-10-09T09:28:23.321Z,17.30
2018-10-09T09:30:52.138Z,17.40
2018-10-09T09:33:21.103Z,17.50
2018-10-09T09:35:49.881Z,17.50
2018-10-09T09:38:18.644Z,17.50
2018-10-09T09:40:48.058Z,17.50
2018-10-09T09:43:17.006Z,17.50
2018-10-09T09:45:45.830Z,17.70
2018-10-09T09:48:14.581Z,17.80
2018-10-09T09:50:43.313Z,17.70
2018-10-09T09:53:12.107Z,17.70
2018-10-09T09:55:41.138Z,17.60
2018-10-09T09:58:10.042Z,17.30
2018-10-09T10:00:43.917Z,17.30
2018-10-09T10:03:12.656Z,17.30
2018-10-09T10:05:41.457Z,17.30
2018-10-09T10:08:10.342Z,17.40
2018-10-09T10:10:39.069Z,17.50
2018-10-09T10:13:07.856Z,17.40
2018-10-09T10:15:36.673Z,17.50
2018-10-09T10:18:05.514Z,17.50
2018-10-09T10:20:34.278Z,17.50
2018-10-09T10:23:03.159Z,17.50
2018-10-09T10:25:32.030Z,17.40
2018-10-09T10:28:01.809Z,17.40
2018-10-09T10:30:30.597Z,17.40
2018-10-09T10:32:59.444Z,17.30
2018-10-09T10:35:28.272Z,17.20
2018-10-09T10:37:57.059Z,17.40
2018-10-09T10:40:25.821Z,17.50
2018-10-09T10:42:54.590Z,17.60
2018-10-09T10:45:23.336Z,17.40
2018-10-09T10:47:52.148Z,17.40
2018-10-09T10:50:20.903Z,17.40
2018-10-09T10:52:49.788Z,17.30
2018-10-09T10:55:18.656Z,17.40
2018-10-09T10:57:47.452Z,17.20
2018-10-09T11:00:17.206Z,17.20
2018-10-09T11:02:46.104Z,17.30
2018-10-09T11:05:14.950Z,17.40
2018-10-09T11:07:43.763Z,17.40
2018-10-09T11:10:12.573Z,17.20
2018-10-09T11:12:42.088Z,17.20
2018-10-09T11:15:10.920Z,17.30
2018-10-09T11:17:39.647Z,17.30
2018-10-09T11:20:09.491Z,17.30
2018-10-09T11:22:38.241Z,17.30
2018-10-09T11:25:07.077Z,17.30
2018-10-09T11:27:35.789Z,17.30
2018-10-09T11:30:04.774Z,17.20
2018-10-09T11:32:33.592Z,17.30
2018-10-09T11:35:02.360Z,17.40
2018-10-09T11:37:31.094Z,17.30
2018-10-09T11:40:00.141Z,17.30
2018-10-09T11:42:28.973Z,17.30
2018-10-09T11:44:57.736Z,17.20
2018-10-09T11:47:26.782Z,17.50
2018-10-09T11:49:55.523Z,17.60
2018-10-09T11:52:24.288Z,17.40
2018-10-09T11:54:53.046Z,17.60
2018-10-09T11:57:21.820Z,17.60
2018-10-09T11:59:50.985Z,17.60
2018-10-09T12:02:19.884Z,17.90
2018-10-09T12:04:48.632Z,18.00
2018-10-09T12:07:17.408Z,18.20
2018-10-09T12:09:46.168Z,18.10
2018-10-09T12:12:14.944Z,18.20
2018-10-09T12:14:43.689Z,18.10
2018-10-09T12:17:12.476Z,18.20
2018-10-09T12:19:41.330Z,18.20
2018-10-09T12:22:10.157Z,18.30
2018-10-09T12:24:38.912Z,18.20
2018-10-09T12:27:07.777Z,18.00
2018-10-09T12:29:36.512Z,17.90
2018-10-09T12:32:05.364Z,18.20
2018-10-09T12:34:34.134Z,18.20
2018-10-09T12:37:02.884Z,18.20
2018-10-09T12:39:31.689Z,18.20
2018-10-09T12:42:00.493Z,18.30
2018-10-09T12:44:29.284Z,18.30
2018-10-09T12:46:58.064Z,18.10
2018-10-09T12:49:26.814Z,18.20
2018-10-09T12:51:55.582Z,18.10
2018-10-09T12:54:24.345Z,18.10
2018-10-09T12:56:53.155Z,18.00
2018-10-09T12:59:21.858Z,18.00
2018-10-09T13:01:50.923Z,17.90
2018-10-09T13:04:20.526Z,17.70
2018-10-09T13:06:49.332Z,17.80
2018-10-09T13:09:18.155Z,17.80
2018-10-09T13:11:46.929Z,17.70
2018-10-09T13:14:15.697Z,17.70
2018-10-09T13:16:44.452Z,17.80
2018-10-09T13:19:13.226Z,17.70
2018-10-09T13:21:42.352Z,17.70
2018-10-09T13:24:11.041Z,17.70
2018-10-09T13:26:39.852Z,17.80
2018-10-09T13:29:08.561Z,17.80
2018-10-09T13:31:37.377Z,17.70
2018-10-09T13:34:06.241Z,17.80
2018-10-09T13:36:35.085Z,17.70
2018-10-09T13:39:05.352Z,17.80
2018-10-09T13:41:34.202Z,17.60
2018-10-09T13:44:03.247Z,17.70
2018-10-09T13:46:32.227Z,17.70
2018-10-09T13:49:01.196Z,17.70
2018-10-09T13:51:30.003Z,17.70
2018-10-09T13:53:58.778Z,17.80
2018-10-09T13:56:27.827Z,17.80
2018-10-09T13:58:56.610Z,17.90
2018-10-09T14:01:25.428Z,17.90
2018-10-09T14:03:54.553Z,18.00
2018-10-09T14:06:23.325Z,18.00
2018-10-09T14:08:52.464Z,18.00
2018-10-09T14:11:21.582Z,17.70
2018-10-09T14:13:50.341Z,17.80
2018-10-09T14:16:19.151Z,17.80
2018-10-09T14:18:47.913Z,17.70
2018-10-09T14:21:16.717Z,17.60
2018-10-09T14:23:45.751Z,17.70
2018-10-09T14:26:14.517Z,17.80
2018-10-09T14:28:43.277Z,17.80
2018-10-09T14:31:12.036Z,17.80
2018-10-09T14:33:40.776Z,17.90
2018-10-09T14:36:09.546Z,18.00
2018-10-09T14:38:38.378Z,18.00
2018-10-09T14:41:07.206Z,18.20
2018-10-09T14:43:35.965Z,18.30
2018-10-09T14:46:04.764Z,18.20
2018-10-09T14:48:33.599Z,18.00
2018-10-09T14:51:02.325Z,17.80
2018-10-09T14:53:31.418Z,17.70
2018-10-09T14:56:00.483Z,17.60
2018-10-09T14:58:29.397Z,17.70
2018-10-09T15:00:58.132Z,17.60
2018-10-09T15:03:26.949Z,17.70
2018-10-09T15:05:55.658Z,17.80
2018-10-09T15:08:24.424Z,17.80
2018-10-09T15:10:53.170Z,17.80
2018-10-09T15:13:21.994Z,17.80
2018-10-09T15:15:50.752Z,17.90
2018-10-09T15:18:19.569Z,18.00
2018-10-09T15:20:48.313Z,18.10
2018-10-09T15:23:17.165Z,17.90
2018-10-09T15:25:45.925Z,18.00
2018-10-09T15:28:15.152Z,17.90
2018-10-09T15:30:43.946Z,18.00
2018-10-09T15:33:12.684Z,18.00
2018-10-09T15:35:41.516Z,17.80
2018-10-09T15:38:10.307Z,17.80
2018-10-09T15:40:39.075Z,17.80
2018-10-09T15:43:07.933Z,17.70
2018-10-09T15:45:36.664Z,17.50
2018-10-09T15:48:05.503Z,17.20
2018-10-09T15:50:34.432Z,17.30
2018-10-09T15:53:03.340Z,17.40
2018-10-09T15:55:32.472Z,17.50
2018-10-09T15:58:01.276Z,17.50
2018-10-09T16:00:34.197Z,17.40
2018-10-09T16:03:02.995Z,17.40
2018-10-09T16:05:31.849Z,17.30
2018-10-09T16:08:00.575Z,17.10
2018-10-09T16:10:29.406Z,17.10
2018-10-09T16:12:58.137Z,17.10
2018-10-09T16:15:27.133Z,17.20
2018-10-09T16:17:55.876Z,17.30
2018-10-09T16:20:24.632Z,17.20
2018-10-09T16:22:53.471Z,17.10
2018-10-09T16:25:22.328Z,17.10
2018-10-09T16:27:51.114Z,17.10
2018-10-09T16:30:19.854Z,17.10
2018-10-09T16:32:48.734Z,16.90
2018-10-09T16:35:17.322Z,16.90
2018-10-09T16:37:46.256Z,16.70
2018-10-09T16:40:15.097Z,16.70
2018-10-09T16:42:43.896Z,16.70
2018-10-09T16:45:12.760Z,16.70
2018-10-09T16:47:41.480Z,16.80
2018-10-09T16:50:10.193Z,16.50
2018-10-09T16:52:38.952Z,16.60
2018-10-09T16:55:07.749Z,16.70
2018-10-09T16:57:36.526Z,16.50
2018-10-09T17:00:05.385Z,16.50
2018-10-09T17:02:34.182Z,16.50
2018-10-09T17:05:02.978Z,16.50
2018-10-09T17:07:31.724Z,16.40
2018-10-09T17:10:00.473Z,16.70
2018-10-09T17:12:29.282Z,16.60
2018-10-09T17:14:58.028Z,16.60
2018-10-09T17:17:26.853Z,16.50
2018-10-09T17:19:55.665Z,16.50
2018-10-09T17:22:24.549Z,16.50
2018-10-09T17:24:53.564Z,16.40
2018-10-09T17:27:22.372Z,16.40
2018-10-09T17:29:51.186Z,16.40
2018-10-09T17:32:19.966Z,16.30
2018-10-09T17:34:48.682Z,16.40
2018-10-09T17:37:17.469Z,16.40
2018-10-09T17:39:46.216Z,16.40
2018-10-09T17:42:15.041Z,16.40
2018-10-09T17:44:43.804Z,16.30
2018-10-09T17:47:12.606Z,16.30
2018-10-09T17:49:41.550Z,16.30
2018-10-09T17:52:10.983Z,16.30
2018-10-09T17:54:39.784Z,16.20
2018-10-09T17:57:08.620Z,16.10
2018-10-09T17:59:37.385Z,16.00
2018-10-09T18:02:06.239Z,16.00
2018-10-09T18:04:35.050Z,16.00
2018-10-09T18:07:03.809Z,16.20
2018-10-09T18:09:32.557Z,16.20
2018-10-09T18:12:01.548Z,16.20
2018-10-09T18:14:30.360Z,15.90
2018-10-09T18:16:59.192Z,16.00
2018-10-09T18:19:28.149Z,16.00
2018-10-09T18:21:56.932Z,16.00
2018-10-09T18:24:25.672Z,15.90
2018-10-09T18:26:54.555Z,16.00
2018-10-09T18:29:23.293Z,16.00
2018-10-09T18:31:52.043Z,16.00
2018-10-09T18:34:20.865Z,15.90
2018-10-09T18:36:49.662Z,15.90
2018-10-09T18:39:18.431Z,15.90
2018-10-09T18:41:47.599Z,15.80
2018-10-09T18:44:16.410Z,15.70
2018-10-09T18:46:45.190Z,15.70
2018-10-09T18:49:13.952Z,15.60
2018-10-09T18:51:42.872Z,15.70
2018-10-09T18:54:11.712Z,15.70
2018-10-09T18:56:40.433Z,15.80
2018-10-09T18:59:09.164Z,15.70
2018-10-09T19:01:37.909Z,15.70
2018-10-09T19:04:06.893Z,15.60
2018-10-09T19:06:35.749Z,15.60
2018-10-09T19:09:07.281Z,15.60
2018-10-09T19:11:36.280Z,15.40
2018-10-09T19:14:05.064Z,15.40
2018-10-09T19:16:33.865Z,15.40
2018-10-09T19:19:02.926Z,15.50
2018-10-09T19:21:31.650Z,15.50
2018-10-09T19:24:00.449Z,15.20
2018-10-09T19:26:29.257Z,15.30
2018-10-09T19:28:58.008Z,15.10
2018-10-09T19:31:26.760Z,15.30
2018-10-09T19:33:55.586Z,15.20
2018-10-09T19:36:24.356Z,15.20
2018-10-09T19:38:53.192Z,15.20
2018-10-09T19:41:21.937Z,15.00
2018-10-09T19:43:51.402Z,15.10
2018-10-09T19:46:20.165Z,15.10
2018-10-09T19:48:48.924Z,15.00
2018-10-09T19:51:17.833Z,15.30
2018-10-09T19:53:46.608Z,15.20
2018-10-09T19:56:15.375Z,15.20
2018-10-09T19:58:44.144Z,15.10
2018-10-09T20:01:13.334Z,15.10
2018-10-09T20:03:42.048Z,15.20
2018-10-09T20:06:10.814Z,15.20
2018-10-09T20:08:39.624Z,15.30
2018-10-09T20:11:08.441Z,15.20
2018-10-09T20:13:37.164Z,15.30
2018-10-09T20:16:06.065Z,15.20
2018-10-09T20:18:34.873Z,15.30
2018-10-09T20:21:03.651Z,15.20
2018-10-09T20:23:32.440Z,15.30
2018-10-09T20:26:01.264Z,15.20
2018-10-09T20:28:30.013Z,15.20
2018-10-09T20:30:59.056Z,15.30
2018-10-09T20:33:27.911Z,15.20
2018-10-09T20:35:56.883Z,15.20
2018-10-09T20:38:25.752Z,15.20
2018-10-09T20:40:54.544Z,15.10
2018-10-09T20:43:23.402Z,15.00
2018-10-09T20:45:52.124Z,15.10
2018-10-09T20:48:20.921Z,15.10
2018-10-09T20:50:49.652Z,15.10
2018-10-09T20:53:18.405Z,14.90
2018-10-09T20:55:47.132Z,14.80
2018-10-09T20:58:15.916Z,14.70
2018-10-09T21:00:44.684Z,14.70
2018-10-09T21:03:13.433Z,14.70
2018-10-09T21:05:42.300Z,14.70
2018-10-09T21:08:10.999Z,14.70
2018-10-09T21:10:39.741Z,14.70
2018-10-09T21:13:08.560Z,14.60
2018-10-09T21:15:37.349Z,14.60
2018-10-09T21:18:06.492Z,14.60
2018-10-09T21:20:35.293Z,14.60
2018-10-09T21:23:04.024Z,14.50
2018-10-09T21:25:32.825Z,14.40
2018-10-09T21:28:01.813Z,14.40
2018-10-09T21:30:30.573Z,14.50
2018-10-09T21:32:59.565Z,14.50
2018-10-09T21:35:28.508Z,14.30
2018-10-09T21:37:57.354Z,14.30
2018-10-09T21:40:26.133Z,14.40
2018-10-09T21:42:54.841Z,14.30
2018-10-09T21:45:23.719Z,14.30
2018-10-09T21:47:58.332Z,14.20
2018-10-09T21:50:27.973Z,14.10
2018-10-09T21:52:57.012Z,14.10
2018-10-09T21:55:26.065Z,14.20
2018-10-09T21:57:55.323Z,14.00
2018-10-09T22:00:24.187Z,14.10
2018-10-09T22:02:52.968Z,14.10
2018-10-09T22:05:21.799Z,14.00
2018-10-09T22:07:50.794Z,14.00
2018-10-09T22:10:19.929Z,14.00
2018-10-09T22:12:48.693Z,14.10
2018-10-09T22:15:17.415Z,14.00
2018-10-09T22:17:46.197Z,14.10
2018-10-09T22:20:14.940Z,14.10
2018-10-09T22:22:43.681Z,14.10
2018-10-09T22:25:12.490Z,14.10
2018-10-09T22:27:41.235Z,14.20
2018-10-09T22:30:10.048Z,14.30
2018-10-09T22:32:38.800Z,14.40
2018-10-09T22:35:07.580Z,14.40
2018-10-09T22:37:36.304Z,14.40
2018-10-09T22:40:05.143Z,14.40
2018-10-09T22:42:33.865Z,14.40
2018-10-09T22:45:02.953Z,14.40
2018-10-09T22:47:31.705Z,14.50
2018-10-09T22:50:00.475Z,14.60
2018-10-09T22:52:29.229Z,14.40
2018-10-09T22:54:57.973Z,14.50
2018-10-09T22:57:26.745Z,14.60
2018-10-09T22:59:55.474Z,14.50
2018-10-09T23:02:24.197Z,14.60
2018-10-09T23:04:52.936Z,14.40
2018-10-09T23:07:21.686Z,14.50
2018-10-09T23:09:50.521Z,14.50
2018-10-09T23:12:19.253Z,14.40
2018-10-09T23:14:47.992Z,14.40
2018-10-09T23:17:16.741Z,14.30
2018-10-09T23:19:45.477Z,14.40
2018-10-09T23:22:14.194Z,14.40
2018-10-09T23:24:42.968Z,14.30
2018-10-09T23:27:11.781Z,14.30
2018-10-09T23:29:40.536Z,14.30
2018-10-09T23:32:09.321Z,14.30
2018-10-09T23:34:38.106Z,14.40
2018-10-09T23:37:06.892Z,14.30
2018-10-09T23:39:35.564Z,14.20
2018-10-09T23:42:04.514Z,14.30
2018-10-09T23:44:33.338Z,14.30
2018-10-09T23:47:02.111Z,14.30
2018-10-09T23:49:30.843Z,14.50
2018-10-09T23:51:59.603Z,14.40
2018-10-09T23:54:28.332Z,14.50
2018-10-09T23:56:57.191Z,14.50
2018-10-09T23:59:26.183Z,14.30
